Darstellungsparameter: Aktuell verwendete Einstellungen:
Skalierung der Graphiken ... ?
xyx+y,   Skalierungsfaktor:      Skalierung: Modus: x, Faktor: 1
Darstellungszeitraum ... ?
Vom - - bis: - -   Zeitraum: 12.05.2011 - 18.05.2011
Min/Max/Avg-Anzeige ... ?
Zeige MMA aktuell
Zeige MMA Monat
Zeige MMA alles
Zeige --A aktuell
Zeige --A Monat
Zeige --A alles
Keine MMA-Anzeige
MMA:
Average (ber die Originaldaten)
MMA-Basis: 12.05.2011 - 18.05.2011
Quicknavigation für Darstellung... ?
Tage:      1T, 2T, 3T, 5T -1T -2T -3T -5T +1T +2T +3T +5T
Wochen: 1W, 2W, 3W -1W -2W -3W +1W +2W +3W
Monate: 1M, 3M, 6M -1M -3M -6M +1M +3M +6M
Jahre:    1J, 3J, 5J, 10J -1J -3J -5J -10J +1J +3J +5J +10J
Nutze für die Darstellung ... ?
Originaldaten oder Mittelwerte auf ...
Stundenbasis Tagesbasis Wochenbasis
Monatsbasis Jahresbasis      Datenbasis: Original-Daten
Darstellen als:
Statistik (Auto) Statistik J:M      Darstellung:
Zur Graphik,    zurück zur Übersicht aller Sensoren.
 
Tabellarische Datenbersicht: ?
 
Sensor: Nr:Datum:Temp:Abs-Feuchte:Windchill:Wind:
Aussen-T/F 1 12-05-2011 00:09:02 12.9 C 8 g/m*3 12.9 C 0 km/h
2 12-05-2011 00:21:02 12.6 C 7.97 g/m*3 12.6 C 0 km/h
3 12-05-2011 00:33:01 12.3 C 7.71 g/m*3 12.3 C 0 km/h
4 12-05-2011 00:45:02 12.1 C 7.83 g/m*3 12.1 C 0 km/h
5 12-05-2011 00:57:02 12 C 7.78 g/m*3 12 C 0 km/h
6 12-05-2011 01:09:02 11.9 C 7.84 g/m*3 11.9 C 0 km/h
7 12-05-2011 01:21:02 11.7 C 7.84 g/m*3 11.7 C 0 km/h
8 12-05-2011 01:33:03 11.6 C 8 g/m*3 11.6 C 0 km/h
9 12-05-2011 01:45:02 11.3 C 7.96 g/m*3 11.3 C 0 km/h
10 12-05-2011 01:57:02 11.5 C 8.16 g/m*3 11.5 C 0 km/h
11 12-05-2011 02:09:01 11.7 C 8.37 g/m*3 11.7 C 0 km/h
12 12-05-2011 02:21:02 11.7 C 8.37 g/m*3 11.7 C 0 km/h
13 12-05-2011 02:33:02 11.6 C 8.21 g/m*3 11.6 C 0 km/h
14 12-05-2011 02:46:04 11.3 C 8.06 g/m*3 11.3 C 0 km/h
15 12-05-2011 02:58:04 11 C 7.91 g/m*3 11 C 0 km/h
16 12-05-2011 03:10:05 11.2 C 8.11 g/m*3 11.2 C 0 km/h
17 12-05-2011 03:22:05 11.3 C 8.06 g/m*3 11.3 C 0 km/h
18 12-05-2011 03:34:02 10.7 C 7.86 g/m*3 10.7 C 0 km/h
19 12-05-2011 03:46:03 10.5 C 7.86 g/m*3 10.5 C 0 km/h
20 12-05-2011 03:58:03 10.7 C 8.15 g/m*3 10.7 C 0 km/h
21 12-05-2011 04:10:01 10.6 C 8.1 g/m*3 10.6 C 0 km/h
22 12-05-2011 04:22:02 10.7 C 8.15 g/m*3 10.7 C 0 km/h
23 12-05-2011 04:34:02 10.7 C 8.15 g/m*3 10.7 C 0 km/h
24 12-05-2011 04:46:02 11.1 C 8.26 g/m*3 11.1 C 0 km/h
25 12-05-2011 04:58:02 11.2 C 8.21 g/m*3 11.2 C 0 km/h
Sensor: Nr:Datum:Temp:Abs-Feuchte:Windchill:Wind:
Aussen-T/F 26 12-05-2011 05:10:03 11.4 C 8.21 g/m*3 11.4 C 0 km/h
27 12-05-2011 05:22:02 11.5 C 8.16 g/m*3 11.5 C 0 km/h
28 12-05-2011 05:34:02 11.5 C 8.16 g/m*3 11.5 C 0 km/h
29 12-05-2011 05:46:01 11.2 C 8.01 g/m*3 11.2 C 0 km/h
30 12-05-2011 05:58:01 11.2 C 8.01 g/m*3 11.2 C 0 km/h
31 12-05-2011 06:10:02 11.1 C 7.96 g/m*3 11.1 C 0 km/h
32 12-05-2011 06:22:01 11.4 C 8.21 g/m*3 11.4 C 0 km/h
33 12-05-2011 06:34:02 11.7 C 8.26 g/m*3 11.7 C 0 km/h
34 12-05-2011 06:46:01 11.9 C 8.37 g/m*3 11.9 C 0 km/h
35 12-05-2011 06:58:01 12.2 C 8.31 g/m*3 12.2 C 0 km/h
36 12-05-2011 07:10:02 12.4 C 8.3 g/m*3 12.4 C 0 km/h
37 12-05-2011 07:22:02 12.4 C 8.3 g/m*3 12.4 C 0 km/h
38 12-05-2011 07:34:02 12.7 C 8.24 g/m*3 12.7 C 0 km/h
39 12-05-2011 07:46:02 13 C 8.28 g/m*3 13 C 0 km/h
40 12-05-2011 07:58:02 13.1 C 7.99 g/m*3 13.1 C 0 km/h
41 12-05-2011 08:10:02 13.4 C 8.25 g/m*3 13.4 C 0 km/h
42 12-05-2011 08:22:02 13.7 C 7.93 g/m*3 13.7 C 0 km/h
43 12-05-2011 08:34:02 13.9 C 8.15 g/m*3 13.9 C 0 km/h
44 12-05-2011 08:46:02 14.1 C 7.77 g/m*3 14.1 C 0 km/h
45 12-05-2011 08:58:02 14.2 C 7.69 g/m*3 14.2 C 0 km/h
46 12-05-2011 09:10:02 14.7 C 7.81 g/m*3 14.7 C 0 km/h
47 12-05-2011 09:22:02 15.2 C 7.53 g/m*3 15.2 C 0 km/h
48 12-05-2011 09:34:01 15.3 C 7.57 g/m*3 15.3 C 0 km/h
49 12-05-2011 09:46:03 15.5 C 7.53 g/m*3 15.5 C 0 km/h
50 12-05-2011 09:58:03 15.8 C 7.54 g/m*3 15.8 C 0 km/h
Sensor: Nr:Datum:Temp:Abs-Feuchte:Windchill:Wind:
Aussen-T/F 51 12-05-2011 10:10:02 16.7 C 7.53 g/m*3 16.7 C 0 km/h
52 12-05-2011 10:22:02 17.1 C 7.28 g/m*3 17.1 C 0 km/h
53 12-05-2011 10:34:03 16.7 C 7.11 g/m*3 16.7 C 0 km/h
54 12-05-2011 10:46:02 15.8 C 7.13 g/m*3 15.8 C 0 km/h
55 12-05-2011 10:58:02 16.1 C 7.26 g/m*3 16.1 C 0 km/h
56 12-05-2011 11:10:01 16.1 C 7.13 g/m*3 16.1 C 0 km/h
57 12-05-2011 11:22:02 16.6 C 6.92 g/m*3 16.6 C 0 km/h
58 12-05-2011 11:34:02 17 C 6.95 g/m*3 17 C 0 km/h
59 12-05-2011 11:46:02 17.8 C 7.13 g/m*3 17.8 C 0 km/h
60 12-05-2011 11:58:02 18.1 C 6.64 g/m*3 18.1 C 0 km/h
61 12-05-2011 12:10:03 18.1 C 6.64 g/m*3 18.1 C 0 km/h
62 12-05-2011 12:22:02 19.2 C 6.27 g/m*3 19.2 C 0 km/h
63 12-05-2011 12:34:02 19.6 C 6.58 g/m*3 19.6 C 0 km/h
64 12-05-2011 12:46:01 20.2 C 6.29 g/m*3 20.2 C 0 km/h
65 12-05-2011 12:58:01 20.7 C 6.3 g/m*3 20.7 C 0 km/h
66 12-05-2011 13:10:01 21.4 C 6.56 g/m*3 21.4 C 0 km/h
67 12-05-2011 13:22:01 19.8 C 6.15 g/m*3 19.8 C 0 km/h
68 12-05-2011 13:34:01 21.2 C 6.49 g/m*3 21.2 C 0 km/h
69 12-05-2011 13:46:01 22.8 C 6.1 g/m*3 22.8 C 0 km/h
70 12-05-2011 13:58:01 20.9 C 6.19 g/m*3 20.9 C 0 km/h
71 12-05-2011 14:10:01 25.6 C 5.48 g/m*3 25.6 C 0 km/h
72 12-05-2011 14:22:02 23.3 C 5.44 g/m*3 23.3 C 0 km/h
73 12-05-2011 14:34:01 22.4 C 5.96 g/m*3 22.4 C 0 km/h
74 12-05-2011 14:46:02 23.8 C 5.59 g/m*3 23.8 C 0 km/h
75 12-05-2011 14:58:02 23.5 C 5.71 g/m*3 23.5 C 0 km/h
Sensor: Nr:Datum:Temp:Abs-Feuchte:Windchill:Wind:
Aussen-T/F 76 12-05-2011 15:10:02 21.9 C 5.79 g/m*3 21.9 C 0 km/h
77 12-05-2011 15:22:02 22.3 C 5.92 g/m*3 22.3 C 0 km/h
78 12-05-2011 15:34:02 21.9 C 6.18 g/m*3 21.9 C 0 km/h
79 12-05-2011 15:46:02 21.6 C 6.07 g/m*3 21.6 C 0 km/h
80 12-05-2011 15:58:02 22 C 5.82 g/m*3 22 C 0 km/h
81 12-05-2011 16:10:01 20.4 C 6.19 g/m*3 20.4 C 0 km/h
82 12-05-2011 16:22:02 22.9 C 5.72 g/m*3 22.9 C 0 km/h
83 12-05-2011 16:34:02 23.7 C 5.35 g/m*3 23.7 C 0 km/h
84 12-05-2011 16:46:02 22.9 C 5.72 g/m*3 22.9 C 0 km/h
85 12-05-2011 16:58:02 20.8 C 5.61 g/m*3 20.8 C 0 km/h
86 12-05-2011 17:10:03 20.2 C 5.42 g/m*3 20.2 C 0 km/h
87 12-05-2011 17:22:02 21.7 C 5.53 g/m*3 21.7 C 0 km/h
88 12-05-2011 17:34:02 21.7 C 5.34 g/m*3 21.7 C 0 km/h
89 12-05-2011 17:46:01 20.8 C 4.53 g/m*3 20.8 C 0 km/h
90 12-05-2011 17:58:01 23.4 C 4.21 g/m*3 23.4 C 0 km/h
91 12-05-2011 18:10:02 21.4 C 3.75 g/m*3 21.4 C 0 km/h
92 12-05-2011 18:22:01 21.2 C 4.45 g/m*3 21.2 C 0 km/h
93 12-05-2011 18:34:02 24 C 4.35 g/m*3 24 C 0 km/h
94 12-05-2011 18:46:02 22.1 C 4.29 g/m*3 22.1 C 0 km/h
95 12-05-2011 18:58:02 20.9 C 4.92 g/m*3 20.9 C 0 km/h
96 12-05-2011 19:10:02 19.5 C 5.03 g/m*3 19.5 C 0 km/h
97 12-05-2011 19:22:02 19.3 C 4.98 g/m*3 19.3 C 0 km/h
98 12-05-2011 19:34:02 19.1 C 4.92 g/m*3 19.1 C 0 km/h
99 12-05-2011 19:46:02 18.4 C 4.88 g/m*3 18.4 C 0 km/h
100 12-05-2011 19:58:02 17.9 C 5.04 g/m*3 17.9 C 0 km/h
Sensor: Nr:Datum:Temp:Abs-Feuchte:Windchill:Wind:
Aussen-T/F 101 12-05-2011 20:10:02 17.2 C 4.98 g/m*3 17.2 C 0 km/h
102 12-05-2011 20:22:01 16.7 C 5.12 g/m*3 16.7 C 0 km/h
103 12-05-2011 20:34:02 15.7 C 5.22 g/m*3 15.7 C 0 km/h
104 12-05-2011 20:46:02 15.3 C 5.35 g/m*3 15.3 C 0 km/h
105 12-05-2011 20:58:02 15 C 5.26 g/m*3 15 C 0 km/h
106 12-05-2011 21:10:02 14.8 C 5.45 g/m*3 14.8 C 0 km/h
107 12-05-2011 21:22:02 14.1 C 5.46 g/m*3 14.1 C 0 km/h
108 12-05-2011 21:34:02 13.6 C 5.65 g/m*3 13.6 C 0 km/h
109 12-05-2011 21:46:02 12.8 C 5.94 g/m*3 12.8 C 0 km/h
110 12-05-2011 21:58:02 12.5 C 6.05 g/m*3 12.5 C 0 km/h
111 12-05-2011 22:10:02 12 C 5.86 g/m*3 12 C 0 km/h
112 12-05-2011 22:22:02 11.7 C 6.07 g/m*3 11.7 C 0 km/h
113 12-05-2011 22:34:02 11.7 C 5.96 g/m*3 11.7 C 0 km/h
114 12-05-2011 22:46:02 11.9 C 5.72 g/m*3 11.9 C 0 km/h
115 12-05-2011 22:58:02 11.9 C 5.51 g/m*3 11.9 C 0 km/h
116 12-05-2011 23:10:02 11.6 C 5.61 g/m*3 11.6 C 0 km/h
117 12-05-2011 23:22:02 11.1 C 5.44 g/m*3 11.1 C 0 km/h
118 12-05-2011 23:34:01 10.5 C 5.43 g/m*3 10.5 C 0 km/h
119 12-05-2011 23:46:02 10.1 C 5.39 g/m*3 10.1 C 0 km/h
120 12-05-2011 23:58:02 10.3 C 5.46 g/m*3 10.3 C 0 km/h
121 13-05-2011 00:11:02 10.3 C 5.27 g/m*3 10.3 C 0 km/h
122 13-05-2011 00:23:02 10.4 C 5.2 g/m*3 10.4 C 0 km/h
123 13-05-2011 00:35:02 9.9 C 5.32 g/m*3 9.9 C 0 km/h
124 13-05-2011 00:47:02 9.7 C 5.35 g/m*3 9.7 C 0 km/h
125 13-05-2011 00:59:02 9.6 C 5.4 g/m*3 9.6 C 0 km/h
Sensor: Nr:Datum:Temp:Abs-Feuchte:Windchill:Wind:
Aussen-T/F 126 13-05-2011 01:11:02 9.5 C 5.46 g/m*3 9.5 C 0 km/h
127 13-05-2011 01:23:02 8.9 C 5.43 g/m*3 8.9 C 0 km/h
128 13-05-2011 01:35:02 8.6 C 5.5 g/m*3 8.6 C 0 km/h
129 13-05-2011 01:47:02 7.9 C 5.59 g/m*3 7.9 C 0 km/h
130 13-05-2011 01:59:02 7.5 C 5.6 g/m*3 7.5 C 0 km/h
131 13-05-2011 02:11:02 7 C 5.5 g/m*3 7 C 0 km/h
132 13-05-2011 02:23:02 7.3 C 5.69 g/m*3 7.3 C 0 km/h
133 13-05-2011 02:35:02 6.9 C 5.54 g/m*3 6.9 C 0 km/h
134 13-05-2011 02:47:02 6.9 C 5.7 g/m*3 6.9 C 0 km/h
135 13-05-2011 02:59:02 6.8 C 5.58 g/m*3 6.8 C 0 km/h
136 13-05-2011 03:11:02 6.3 C 5.55 g/m*3 6.3 C 0 km/h
137 13-05-2011 03:23:03 6.6 C 5.74 g/m*3 6.6 C 0 km/h
138 13-05-2011 03:35:03 7 C 5.73 g/m*3 7 C 0 km/h
139 13-05-2011 03:47:03 6.7 C 5.7 g/m*3 6.7 C 0 km/h
140 13-05-2011 03:59:03 6.6 C 5.81 g/m*3 6.6 C 0 km/h
141 13-05-2011 04:11:03 6.4 C 5.74 g/m*3 6.4 C 0 km/h
142 13-05-2011 04:23:03 6.2 C 5.74 g/m*3 6.2 C 0 km/h
143 13-05-2011 04:35:03 6 C 5.73 g/m*3 6 C 0 km/h
144 13-05-2011 04:47:03 5.5 C 5.69 g/m*3 5.5 C 0 km/h
145 13-05-2011 04:59:03 5.2 C 5.65 g/m*3 5.2 C 0 km/h
146 13-05-2011 05:11:03 5.1 C 5.68 g/m*3 5.1 C 0 km/h
147 13-05-2011 05:23:03 5.2 C 5.78 g/m*3 5.2 C 0 km/h
148 13-05-2011 05:35:03 5.2 C 5.78 g/m*3 5.2 C 0 km/h
149 13-05-2011 05:47:03 5 C 5.78 g/m*3 5 C 0 km/h
150 13-05-2011 05:59:03 4.7 C 5.73 g/m*3 4.7 C 0 km/h
Sensor: Nr:Datum:Temp:Abs-Feuchte:Windchill:Wind:
Aussen-T/F 151 13-05-2011 06:11:03 4.7 C 5.73 g/m*3 4.7 C 0 km/h
152 13-05-2011 06:23:03 4.8 C 5.83 g/m*3 4.8 C 0 km/h
153 13-05-2011 06:35:03 5.2 C 5.92 g/m*3 5.2 C 0 km/h
154 13-05-2011 06:47:03 5.1 C 5.88 g/m*3 5.1 C 0 km/h
155 13-05-2011 06:59:03 5.2 C 5.92 g/m*3 5.2 C 0 km/h
156 13-05-2011 07:11:02 5 C 5.84 g/m*3 5 C 0 km/h
157 13-05-2011 07:23:02 5.1 C 5.88 g/m*3 5.1 C 0 km/h
158 13-05-2011 07:35:02 5.3 C 5.96 g/m*3 5.3 C 0 km/h
159 13-05-2011 07:47:02 5.4 C 6.07 g/m*3 5.4 C 0 km/h
160 13-05-2011 07:59:02 5.8 C 6.23 g/m*3 5.8 C 0 km/h
161 13-05-2011 08:11:03 5.9 C 6.27 g/m*3 5.9 C 0 km/h
162 13-05-2011 08:23:02 6.4 C 6.41 g/m*3 6.4 C 0 km/h
163 13-05-2011 08:35:02 6.8 C 6.58 g/m*3 6.8 C 0 km/h
164 13-05-2011 08:47:01 7.3 C 6.79 g/m*3 7.3 C 0 km/h
165 13-05-2011 08:59:01 7.9 C 6.98 g/m*3 7.9 C 0 km/h
166 13-05-2011 09:11:02 8.6 C 7.13 g/m*3 8.6 C 0 km/h
167 13-05-2011 09:23:01 9.6 C 7.15 g/m*3 9.6 C 0 km/h
168 13-05-2011 09:35:01 10.8 C 6.52 g/m*3 10.8 C 0 km/h
169 13-05-2011 09:47:01 11.2 C 6.59 g/m*3 11.2 C 0 km/h
170 13-05-2011 09:59:01 11.5 C 6.61 g/m*3 11.5 C 0 km/h
171 13-05-2011 10:11:01 12.2 C 6.47 g/m*3 12.2 C 0 km/h
172 13-05-2011 10:23:02 12.8 C 6.38 g/m*3 12.8 C 0 km/h
173 13-05-2011 10:35:01 13.5 C 6.32 g/m*3 13.5 C 0 km/h
174 13-05-2011 10:47:03 13.5 C 6.55 g/m*3 13.5 C 0 km/h
175 13-05-2011 10:59:03 13.9 C 6.47 g/m*3 13.9 C 0 km/h
Sensor: Nr:Datum:Temp:Abs-Feuchte:Windchill:Wind:
Aussen-T/F 176 13-05-2011 11:11:02 14.7 C 5.29 g/m*3 14.7 C 0 km/h
177 13-05-2011 11:23:02 15.1 C 5.42 g/m*3 15.1 C 0 km/h
178 13-05-2011 11:35:02 15.9 C 5.28 g/m*3 15.9 C 0 km/h
179 13-05-2011 11:47:02 16.8 C 5.15 g/m*3 16.8 C 0 km/h
180 13-05-2011 11:59:02 16.9 C 5.03 g/m*3 16.9 C 0 km/h
181 13-05-2011 12:11:02 17 C 5.06 g/m*3 17 C 0 km/h
182 13-05-2011 12:23:02 17.5 C 4.92 g/m*3 17.5 C 0 km/h
183 13-05-2011 12:35:02 17.9 C 4.89 g/m*3 17.9 C 0 km/h
184 13-05-2011 12:47:01 17.5 C 5.67 g/m*3 17.5 C 0 km/h
185 13-05-2011 12:59:01 18.1 C 5.41 g/m*3 18.1 C 0 km/h
186 13-05-2011 13:11:02 18.3 C 4.53 g/m*3 18.3 C 0 km/h
187 13-05-2011 13:23:01 18.3 C 4.38 g/m*3 18.3 C 0 km/h
188 13-05-2011 13:35:02 18.3 C 5.47 g/m*3 18.3 C 0 km/h
189 13-05-2011 13:47:02 21.9 C 5.4 g/m*3 21.9 C 0 km/h
190 13-05-2011 13:59:02 24 C 4.35 g/m*3 24 C 0 km/h
191 13-05-2011 14:11:02 22.3 C 3.95 g/m*3 22.3 C 0 km/h
192 13-05-2011 14:23:01 23.5 C 4.23 g/m*3 23.5 C 0 km/h
193 13-05-2011 14:35:02 25.4 C 4.71 g/m*3 25.4 C 0 km/h
194 13-05-2011 14:47:02 24.6 C 4.5 g/m*3 24.6 C 0 km/h
195 13-05-2011 14:59:02 27.7 C 5.35 g/m*3 27.7 C 0 km/h
196 13-05-2011 15:11:02 22 C 3.88 g/m*3 22 C 0 km/h
197 13-05-2011 15:23:01 22 C 4.27 g/m*3 22 C 0 km/h
198 13-05-2011 15:35:02 20.2 C 5.07 g/m*3 20.2 C 0 km/h
199 13-05-2011 15:47:01 20 C 6.22 g/m*3 20 C 0 km/h
200 13-05-2011 15:59:01 20.8 C 5.79 g/m*3 20.8 C 0 km/h
Sensor: Nr:Datum:Temp:Abs-Feuchte:Windchill:Wind:
Aussen-T/F 201 13-05-2011 16:11:02 24.4 C 4.45 g/m*3 24.4 C 0 km/h
202 13-05-2011 16:23:02 24.7 C 4.53 g/m*3 24.7 C 0 km/h
203 13-05-2011 16:35:02 26 C 4.87 g/m*3 26 C 0 km/h
204 13-05-2011 16:47:02 25.9 C 4.84 g/m*3 25.9 C 0 km/h
205 13-05-2011 16:59:02 23.3 C 4.18 g/m*3 23.3 C 0 km/h
206 13-05-2011 17:11:01 25.7 C 4.79 g/m*3 25.7 C 0 km/h
207 13-05-2011 17:23:02 26.2 C 4.92 g/m*3 26.2 C 0 km/h
208 13-05-2011 17:35:01 28.3 C 5.53 g/m*3 28.3 C 0 km/h
209 13-05-2011 17:47:02 22.9 C 4.09 g/m*3 22.9 C 0 km/h
210 13-05-2011 17:59:02 22.3 C 5.13 g/m*3 22.3 C 0 km/h
211 13-05-2011 18:11:02 20.4 C 5.84 g/m*3 20.4 C 0 km/h
212 13-05-2011 18:23:02 20 C 6.22 g/m*3 20 C 0 km/h
213 13-05-2011 18:35:03 21.6 C 6.26 g/m*3 21.6 C 0 km/h
214 13-05-2011 18:47:02 24.4 C 5.79 g/m*3 24.4 C 0 km/h
215 13-05-2011 18:59:02 23.4 C 4.84 g/m*3 23.4 C 0 km/h
216 13-05-2011 19:11:02 24 C 5 g/m*3 24 C 0 km/h
217 13-05-2011 19:23:02 22.3 C 5.92 g/m*3 22.3 C 0 km/h
218 13-05-2011 19:35:02 21.4 C 5.62 g/m*3 21.4 C 0 km/h
219 13-05-2011 19:47:02 19.7 C 5.26 g/m*3 19.7 C 0 km/h
220 13-05-2011 19:59:02 18.1 C 6.03 g/m*3 18.1 C 0 km/h
221 13-05-2011 20:11:02 17.2 C 6.3 g/m*3 17.2 C 0 km/h
222 13-05-2011 20:23:01 16.2 C 6.21 g/m*3 16.2 C 0 km/h
223 13-05-2011 20:35:02 15.2 C 5.97 g/m*3 15.2 C 0 km/h
224 13-05-2011 20:47:02 14.3 C 5.77 g/m*3 14.3 C 0 km/h
225 13-05-2011 20:59:02 13.8 C 5.72 g/m*3 13.8 C 0 km/h
Sensor: Nr:Datum:Temp:Abs-Feuchte:Windchill:Wind:
Aussen-T/F 226 13-05-2011 21:11:02 13.4 C 5.58 g/m*3 13.4 C 0 km/h
227 13-05-2011 21:23:02 13.1 C 5.48 g/m*3 13.1 C 0 km/h
228 13-05-2011 21:35:02 12.8 C 5.49 g/m*3 12.8 C 0 km/h
229 13-05-2011 21:47:02 12.7 C 5.45 g/m*3 12.7 C 0 km/h
230 13-05-2011 21:59:02 12.5 C 5.28 g/m*3 12.5 C 0 km/h
231 13-05-2011 22:11:02 12.4 C 5.35 g/m*3 12.4 C 0 km/h
232 13-05-2011 22:24:02 12.3 C 5.32 g/m*3 12.3 C 0 km/h
233 13-05-2011 22:36:02 12.1 C 5.25 g/m*3 12.1 C 0 km/h
234 13-05-2011 22:48:02 11.8 C 5.37 g/m*3 11.8 C 0 km/h
235 13-05-2011 23:00:02 11.7 C 5.54 g/m*3 11.7 C 0 km/h
236 13-05-2011 23:12:02 11.7 C 5.54 g/m*3 11.7 C 0 km/h
237 13-05-2011 23:24:02 11.8 C 5.58 g/m*3 11.8 C 0 km/h
238 13-05-2011 23:36:02 11.9 C 5.51 g/m*3 11.9 C 0 km/h
239 13-05-2011 23:48:02 11.4 C 5.34 g/m*3 11.4 C 0 km/h
240 14-05-2011 00:00:02 10.9 C 5.57 g/m*3 10.9 C 0 km/h
241 14-05-2011 00:12:03 10.4 C 5.49 g/m*3 10.4 C 0 km/h
242 14-05-2011 00:24:03 10.1 C 5.48 g/m*3 10.1 C 0 km/h
243 14-05-2011 00:36:03 9.6 C 5.59 g/m*3 9.6 C 0 km/h
244 14-05-2011 00:48:03 9.3 C 5.57 g/m*3 9.3 C 0 km/h
245 14-05-2011 01:00:03 9.1 C 5.5 g/m*3 9.1 C 0 km/h
246 14-05-2011 01:12:03 8.9 C 5.69 g/m*3 8.9 C 0 km/h
247 14-05-2011 01:24:03 8.6 C 5.59 g/m*3 8.6 C 0 km/h
248 14-05-2011 01:36:03 8.6 C 5.76 g/m*3 8.6 C 0 km/h
249 14-05-2011 01:48:03 8.2 C 5.61 g/m*3 8.2 C 0 km/h
250 14-05-2011 02:00:03 8.2 C 5.95 g/m*3 8.2 C 0 km/h
Sensor: Nr:Datum:Temp:Abs-Feuchte:Windchill:Wind:
Aussen-T/F 251 14-05-2011 02:12:03 8 C 6.04 g/m*3 8 C 0 km/h
252 14-05-2011 02:24:03 8 C 6.04 g/m*3 8 C 0 km/h
253 14-05-2011 02:36:03 7.6 C 5.88 g/m*3 7.6 C 0 km/h
254 14-05-2011 02:48:03 7.5 C 5.92 g/m*3 7.5 C 0 km/h
255 14-05-2011 03:00:03 7.3 C 5.85 g/m*3 7.3 C 0 km/h
256 14-05-2011 03:12:03 7.2 C 5.89 g/m*3 7.2 C 0 km/h
257 14-05-2011 03:24:03 7 C 5.89 g/m*3 7 C 0 km/h
258 14-05-2011 03:36:03 6.9 C 6 g/m*3 6.9 C 0 km/h
259 14-05-2011 03:48:03 6.8 C 6.04 g/m*3 6.8 C 0 km/h
260 14-05-2011 04:00:03 6.8 C 6.12 g/m*3 6.8 C 0 km/h
261 14-05-2011 04:12:03 6.6 C 6.11 g/m*3 6.6 C 0 km/h
262 14-05-2011 04:24:04 6.8 C 6.27 g/m*3 6.8 C 0 km/h
263 14-05-2011 04:36:04 6.6 C 6.19 g/m*3 6.6 C 0 km/h
264 14-05-2011 04:48:04 6.4 C 6.11 g/m*3 6.4 C 0 km/h
265 14-05-2011 05:00:04 6.3 C 6.07 g/m*3 6.3 C 0 km/h
266 14-05-2011 05:12:04 6.2 C 6.03 g/m*3 6.2 C 0 km/h
267 14-05-2011 05:24:04 6 C 5.95 g/m*3 6 C 0 km/h
268 14-05-2011 05:36:04 5.8 C 6.02 g/m*3 5.8 C 0 km/h
269 14-05-2011 05:48:04 5.6 C 6.01 g/m*3 5.6 C 0 km/h
270 14-05-2011 06:00:04 5.4 C 5.93 g/m*3 5.4 C 0 km/h
271 14-05-2011 06:12:04 5.5 C 6.04 g/m*3 5.5 C 0 km/h
272 14-05-2011 06:24:04 5.4 C 6 g/m*3 5.4 C 0 km/h
273 14-05-2011 06:36:04 5.5 C 6.04 g/m*3 5.5 C 0 km/h
274 14-05-2011 06:48:04 5.6 C 6.08 g/m*3 5.6 C 0 km/h
275 14-05-2011 07:00:04 5.8 C 6.16 g/m*3 5.8 C 0 km/h
Sensor: Nr:Datum:Temp:Abs-Feuchte:Windchill:Wind:
Aussen-T/F 276 14-05-2011 07:12:04 5.9 C 6.2 g/m*3 5.9 C 0 km/h
277 14-05-2011 07:24:04 6.7 C 6.53 g/m*3 6.7 C 0 km/h
278 14-05-2011 07:36:02 7.5 C 6.8 g/m*3 7.5 C 0 km/h
279 14-05-2011 07:48:01 8.1 C 6.74 g/m*3 8.1 C 0 km/h
280 14-05-2011 08:00:01 8.6 C 6.53 g/m*3 8.6 C 0 km/h
281 14-05-2011 08:12:02 9.4 C 6.15 g/m*3 9.4 C 0 km/h
282 14-05-2011 08:24:02 9.7 C 6.08 g/m*3 9.7 C 0 km/h
283 14-05-2011 08:36:01 9.8 C 6.31 g/m*3 9.8 C 0 km/h
284 14-05-2011 08:48:02 10.4 C 6.17 g/m*3 10.4 C 0 km/h
285 14-05-2011 09:00:02 11.2 C 6.18 g/m*3 11.2 C 0 km/h
286 14-05-2011 09:12:02 11.5 C 6.3 g/m*3 11.5 C 0 km/h
287 14-05-2011 09:24:02 12.1 C 6.33 g/m*3 12.1 C 0 km/h
288 14-05-2011 09:36:01 12.9 C 6.31 g/m*3 12.9 C 0 km/h
289 14-05-2011 09:48:01 14.1 C 6.07 g/m*3 14.1 C 0 km/h
290 14-05-2011 10:00:01 14.7 C 6.17 g/m*3 14.7 C 0 km/h
291 14-05-2011 10:12:02 14.7 C 6.17 g/m*3 14.7 C 0 km/h
292 14-05-2011 10:24:02 15.6 C 6.52 g/m*3 15.6 C 0 km/h
293 14-05-2011 10:36:01 16.4 C 6.28 g/m*3 16.4 C 0 km/h
294 14-05-2011 10:48:02 17.6 C 6 g/m*3 17.6 C 0 km/h
295 14-05-2011 11:00:02 17.7 C 5.28 g/m*3 17.7 C 0 km/h
296 14-05-2011 11:12:01 18 C 5.38 g/m*3 18 C 0 km/h
297 14-05-2011 11:24:02 18.5 C 5.54 g/m*3 18.5 C 0 km/h
298 14-05-2011 11:36:01 19.4 C 4.67 g/m*3 19.4 C 0 km/h
299 14-05-2011 11:48:03 19.2 C 4.62 g/m*3 19.2 C 0 km/h
300 14-05-2011 12:00:03 20 C 5.01 g/m*3 20 C 0 km/h
Sensor: Nr:Datum:Temp:Abs-Feuchte:Windchill:Wind:
Aussen-T/F 301 14-05-2011 12:12:02 19.8 C 4.61 g/m*3 19.8 C 0 km/h
302 14-05-2011 12:24:02 20.2 C 4.2 g/m*3 20.2 C 0 km/h
303 14-05-2011 12:36:02 20.8 C 3.8 g/m*3 20.8 C 0 km/h
304 14-05-2011 12:48:02 20.9 C 4.55 g/m*3 20.9 C 0 km/h
305 14-05-2011 13:00:02 19.8 C 4.44 g/m*3 19.8 C 0 km/h
306 14-05-2011 13:12:02 19.1 C 4.92 g/m*3 19.1 C 0 km/h
307 14-05-2011 13:24:02 18.1 C 5.1 g/m*3 18.1 C 0 km/h
308 14-05-2011 13:36:02 19 C 5.7 g/m*3 19 C 0 km/h
309 14-05-2011 13:48:02 19.5 C 5.87 g/m*3 19.5 C 0 km/h
310 14-05-2011 14:00:02 18.5 C 5.85 g/m*3 18.5 C 0 km/h
311 14-05-2011 14:12:02 15.7 C 6.29 g/m*3 15.7 C 0 km/h
312 14-05-2011 14:24:02 14.5 C 7.09 g/m*3 14.5 C 0 km/h
313 14-05-2011 14:36:02 14.1 C 7.52 g/m*3 14.1 C 0 km/h
314 14-05-2011 14:48:02 14.5 C 7.96 g/m*3 14.5 C 0 km/h
315 14-05-2011 15:00:02 15 C 6.41 g/m*3 15 C 0 km/h
316 14-05-2011 15:12:02 16.5 C 6.6 g/m*3 16.5 C 0 km/h
317 14-05-2011 15:24:02 17.2 C 6.3 g/m*3 17.2 C 0 km/h
318 14-05-2011 15:36:02 15.3 C 5.88 g/m*3 15.3 C 0 km/h
319 14-05-2011 15:48:01 14 C 6.63 g/m*3 14 C 0 km/h
320 14-05-2011 16:00:01 13.9 C 7.31 g/m*3 13.9 C 0 km/h
321 14-05-2011 16:12:02 14.5 C 7.46 g/m*3 14.5 C 0 km/h
322 14-05-2011 16:24:01 14.9 C 7.01 g/m*3 14.9 C 0 km/h
323 14-05-2011 16:36:02 14.8 C 7.6 g/m*3 14.8 C 0 km/h
324 14-05-2011 16:48:02 14.9 C 7.26 g/m*3 14.9 C 0 km/h
325 14-05-2011 17:00:02 15 C 6.15 g/m*3 15 C 0 km/h
Sensor: Nr:Datum:Temp:Abs-Feuchte:Windchill:Wind:
Aussen-T/F 326 14-05-2011 17:12:01 15.6 C 6.52 g/m*3 15.6 C 0 km/h
327 14-05-2011 17:24:02 16.4 C 5.72 g/m*3 16.4 C 0 km/h
328 14-05-2011 17:36:02 18.6 C 5.89 g/m*3 18.6 C 0 km/h
329 14-05-2011 17:48:01 18.5 C 5.7 g/m*3 18.5 C 0 km/h
330 14-05-2011 18:00:01 18.7 C 6.4 g/m*3 18.7 C 0 km/h
331 14-05-2011 18:12:02 19.7 C 5.26 g/m*3 19.7 C 0 km/h
332 14-05-2011 18:24:01 19.3 C 4.31 g/m*3 19.3 C 0 km/h
333 14-05-2011 18:36:02 22.1 C 4.1 g/m*3 22.1 C 0 km/h
334 14-05-2011 18:48:01 19.3 C 4.15 g/m*3 19.3 C 0 km/h
335 14-05-2011 19:00:01 20.4 C 4.42 g/m*3 20.4 C 0 km/h
336 14-05-2011 19:12:02 17.4 C 4 g/m*3 17.4 C 0 km/h
337 14-05-2011 19:24:01 18.5 C 3.96 g/m*3 18.5 C 0 km/h
338 14-05-2011 19:36:02 17.8 C 3.34 g/m*3 17.8 C 0 km/h
339 14-05-2011 19:48:01 16.6 C 3.25 g/m*3 16.6 C 0 km/h
340 14-05-2011 20:00:01 15.9 C 3.39 g/m*3 15.9 C 0 km/h
341 14-05-2011 20:12:02 15.6 C 3.46 g/m*3 15.6 C 0 km/h
342 14-05-2011 20:24:02 15.2 C 3.5 g/m*3 15.2 C 0 km/h
343 14-05-2011 20:36:02 14.7 C 3.53 g/m*3 14.7 C 0 km/h
344 14-05-2011 20:48:01 14 C 3.38 g/m*3 14 C 0 km/h
345 14-05-2011 21:00:01 14.3 C 3.56 g/m*3 14.3 C 0 km/h
346 14-05-2011 21:12:02 12.8 C 3.81 g/m*3 12.8 C 0 km/h
347 14-05-2011 21:24:02 12.7 C 3.67 g/m*3 12.7 C 0 km/h
348 14-05-2011 21:36:01 11.6 C 3.85 g/m*3 11.6 C 0 km/h
349 14-05-2011 21:48:02 11.2 C 3.75 g/m*3 11.2 C 0 km/h
350 14-05-2011 22:00:02 11.2 C 3.85 g/m*3 11.2 C 0 km/h
Sensor: Nr:Datum:Temp:Abs-Feuchte:Windchill:Wind:
Aussen-T/F 351 14-05-2011 22:12:02 10.9 C 3.98 g/m*3 10.9 C 0 km/h
352 14-05-2011 22:24:01 10.8 C 3.95 g/m*3 10.8 C 0 km/h
353 14-05-2011 22:37:02 10.2 C 4 g/m*3 10.2 C 0 km/h
354 14-05-2011 22:49:02 9.9 C 4.2 g/m*3 9.9 C 0 km/h
355 14-05-2011 23:01:02 9.7 C 4.15 g/m*3 9.7 C 0 km/h
356 14-05-2011 23:13:02 9.7 C 4.06 g/m*3 9.7 C 0 km/h
357 14-05-2011 23:25:02 9.7 C 4.15 g/m*3 9.7 C 0 km/h
358 14-05-2011 23:37:03 9.2 C 4.29 g/m*3 9.2 C 0 km/h
359 14-05-2011 23:49:03 9 C 4.41 g/m*3 9 C 0 km/h
360 15-05-2011 00:01:03 8.8 C 4.44 g/m*3 8.8 C 0 km/h
361 15-05-2011 00:13:03 8.7 C 4.5 g/m*3 8.7 C 0 km/h
362 15-05-2011 00:25:03 7.8 C 4.49 g/m*3 7.8 C 0 km/h
363 15-05-2011 00:37:03 7.5 C 4.64 g/m*3 7.5 C 0 km/h
364 15-05-2011 00:49:03 7.3 C 4.74 g/m*3 7.3 C 0 km/h
365 15-05-2011 01:01:03 6.8 C 4.82 g/m*3 6.8 C 0 km/h
366 15-05-2011 01:13:03 7.1 C 5.15 g/m*3 7.1 C 0 km/h
367 15-05-2011 01:25:03 7.1 C 5.07 g/m*3 7.1 C 0 km/h
368 15-05-2011 01:37:03 6.2 C 4.93 g/m*3 6.2 C 0 km/h
369 15-05-2011 01:49:03 6.9 C 5.39 g/m*3 6.9 C 0 km/h
370 15-05-2011 02:01:03 6.3 C 5.18 g/m*3 6.3 C 0 km/h
371 15-05-2011 02:13:03 6.4 C 5.36 g/m*3 6.4 C 0 km/h
372 15-05-2011 02:25:03 6.2 C 5.29 g/m*3 6.2 C 0 km/h
373 15-05-2011 02:37:03 6 C 5.3 g/m*3 6 C 0 km/h
374 15-05-2011 02:49:03 5.6 C 5.16 g/m*3 5.6 C 0 km/h
375 15-05-2011 03:01:03 5.9 C 5.41 g/m*3 5.9 C 0 km/h
Sensor: Nr:Datum:Temp:Abs-Feuchte:Windchill:Wind:
Aussen-T/F 376 15-05-2011 03:13:03 5.7 C 5.34 g/m*3 5.7 C 0 km/h
377 15-05-2011 03:25:03 5.5 C 5.34 g/m*3 5.5 C 0 km/h
378 15-05-2011 03:37:04 5.4 C 5.3 g/m*3 5.4 C 0 km/h
379 15-05-2011 03:49:04 5.3 C 5.34 g/m*3 5.3 C 0 km/h
380 15-05-2011 04:01:04 6.1 C 5.48 g/m*3 6.1 C 0 km/h
381 15-05-2011 04:13:04 6.3 C 5.4 g/m*3 6.3 C 0 km/h
382 15-05-2011 04:25:04 6.7 C 5.24 g/m*3 6.7 C 0 km/h
383 15-05-2011 04:37:04 6.9 C 5.31 g/m*3 6.9 C 0 km/h
384 15-05-2011 04:49:04 6.3 C 5.26 g/m*3 6.3 C 0 km/h
385 15-05-2011 05:01:04 5.8 C 5.3 g/m*3 5.8 C 0 km/h
386 15-05-2011 05:13:04 4.8 C 5.16 g/m*3 4.8 C 0 km/h
387 15-05-2011 05:25:04 4.4 C 5.16 g/m*3 4.4 C 0 km/h
388 15-05-2011 05:37:04 4.3 C 5.25 g/m*3 4.3 C 0 km/h
389 15-05-2011 05:49:04 4.5 C 5.39 g/m*3 4.5 C 0 km/h
390 15-05-2011 06:01:04 5.1 C 5.61 g/m*3 5.1 C 0 km/h
391 15-05-2011 06:13:04 5.4 C 5.51 g/m*3 5.4 C 0 km/h
392 15-05-2011 06:25:04 5.6 C 5.44 g/m*3 5.6 C 0 km/h
393 15-05-2011 06:37:04 5.9 C 5.48 g/m*3 5.9 C 0 km/h
394 15-05-2011 06:49:04 6.3 C 5.4 g/m*3 6.3 C 0 km/h
395 15-05-2011 07:01:04 6.3 C 5.4 g/m*3 6.3 C 0 km/h
396 15-05-2011 07:13:04 6.6 C 5.51 g/m*3 6.6 C 0 km/h
397 15-05-2011 07:25:04 6.9 C 5.54 g/m*3 6.9 C 0 km/h
398 15-05-2011 07:37:05 7.4 C 5.57 g/m*3 7.4 C 0 km/h
399 15-05-2011 07:49:05 7.8 C 5.55 g/m*3 7.8 C 0 km/h
400 15-05-2011 08:01:03 8.2 C 5.53 g/m*3 8.2 C 0 km/h
Sensor: Nr:Datum:Temp:Abs-Feuchte:Windchill:Wind:
Aussen-T/F 401 15-05-2011 08:13:03 9.1 C 5.59 g/m*3 9.1 C 0 km/h
402 15-05-2011 08:25:02 9.2 C 5.54 g/m*3 9.2 C 0 km/h
403 15-05-2011 08:37:03 9.6 C 5.68 g/m*3 9.6 C 0 km/h
404 15-05-2011 08:49:01 9.9 C 5.7 g/m*3 9.9 C 0 km/h
405 15-05-2011 09:01:02 10.5 C 5.82 g/m*3 10.5 C 0 km/h
406 15-05-2011 09:13:02 11.6 C 5.92 g/m*3 11.6 C 0 km/h
407 15-05-2011 09:25:01 12.3 C 5.75 g/m*3 12.3 C 0 km/h
408 15-05-2011 09:37:02 10.8 C 6.03 g/m*3 10.8 C 0 km/h
409 15-05-2011 09:49:02 9.2 C 6.43 g/m*3 9.2 C 0 km/h
410 15-05-2011 10:01:02 8.7 C 6.66 g/m*3 8.7 C 0 km/h
411 15-05-2011 10:13:02 9.1 C 7.01 g/m*3 9.1 C 0 km/h
412 15-05-2011 10:25:01 9.6 C 7.42 g/m*3 9.6 C 0 km/h
413 15-05-2011 10:37:02 9.6 C 7.15 g/m*3 9.6 C 0 km/h
414 15-05-2011 10:49:01 9.8 C 7.24 g/m*3 9.8 C 0 km/h
415 15-05-2011 11:01:02 10.7 C 7.27 g/m*3 10.7 C 0 km/h
416 15-05-2011 11:13:02 11 C 7.11 g/m*3 11 C 0 km/h
417 15-05-2011 11:25:02 11.2 C 7.5 g/m*3 11.2 C 0 km/h
418 15-05-2011 11:37:02 11.9 C 6.88 g/m*3 11.9 C 0 km/h
419 15-05-2011 11:49:02 13.2 C 6.77 g/m*3 13.2 C 0 km/h
420 15-05-2011 12:01:02 11.4 C 6.26 g/m*3 11.4 C 0 km/h
421 15-05-2011 12:13:02 11.7 C 6.69 g/m*3 11.7 C 0 km/h
422 15-05-2011 12:25:02 11.7 C 7.01 g/m*3 11.7 C 0 km/h
423 15-05-2011 12:37:02 12.2 C 6.69 g/m*3 12.2 C 0 km/h
424 15-05-2011 12:49:02 13 C 6.46 g/m*3 13 C 0 km/h
425 15-05-2011 13:01:01 13.4 C 6.39 g/m*3 13.4 C 0 km/h
Sensor: Nr:Datum:Temp:Abs-Feuchte:Windchill:Wind:
Aussen-T/F 426 15-05-2011 13:13:01 14.2 C 5.62 g/m*3 14.2 C 0 km/h
427 15-05-2011 13:25:02 15.8 C 5.79 g/m*3 15.8 C 0 km/h
428 15-05-2011 13:37:01 14.9 C 5.61 g/m*3 14.9 C 0 km/h
429 15-05-2011 13:49:02 16.8 C 5.29 g/m*3 16.8 C 0 km/h
430 15-05-2011 14:01:01 20.3 C 5.28 g/m*3 20.3 C 0 km/h
431 15-05-2011 14:13:01 17.6 C 4.65 g/m*3 17.6 C 0 km/h
432 15-05-2011 14:25:02 15 C 4.87 g/m*3 15 C 0 km/h
433 15-05-2011 14:37:01 14.5 C 5.72 g/m*3 14.5 C 0 km/h
434 15-05-2011 14:49:01 14.1 C 5.7 g/m*3 14.1 C 0 km/h
435 15-05-2011 15:01:01 14.5 C 5.97 g/m*3 14.5 C 0 km/h
436 15-05-2011 15:13:01 15.3 C 5.75 g/m*3 15.3 C 0 km/h
437 15-05-2011 15:25:02 13.6 C 6.12 g/m*3 13.6 C 0 km/h
438 15-05-2011 15:37:01 14.6 C 5.88 g/m*3 14.6 C 0 km/h
439 15-05-2011 15:49:03 15.3 C 5.22 g/m*3 15.3 C 0 km/h
440 15-05-2011 16:01:02 16.5 C 4.77 g/m*3 16.5 C 0 km/h
441 15-05-2011 16:13:02 17.5 C 4.77 g/m*3 17.5 C 0 km/h
442 15-05-2011 16:25:02 15.7 C 4.42 g/m*3 15.7 C 0 km/h
443 15-05-2011 16:37:02 17.2 C 4.69 g/m*3 17.2 C 0 km/h
444 15-05-2011 16:49:02 18.7 C 4.48 g/m*3 18.7 C 0 km/h
445 15-05-2011 17:01:01 20.3 C 4.4 g/m*3 20.3 C 0 km/h
446 15-05-2011 17:13:01 21 C 4.4 g/m*3 21 C 0 km/h
447 15-05-2011 17:25:02 20.5 C 4.45 g/m*3 20.5 C 0 km/h
448 15-05-2011 17:37:02 15.4 C 4.6 g/m*3 15.4 C 0 km/h
449 15-05-2011 17:49:01 14.5 C 4.97 g/m*3 14.5 C 0 km/h
450 15-05-2011 18:01:02 13.9 C 5.27 g/m*3 13.9 C 0 km/h
Sensor: Nr:Datum:Temp:Abs-Feuchte:Windchill:Wind:
Aussen-T/F 451 15-05-2011 18:13:02 12 C 6.07 g/m*3 12 C 0 km/h
452 15-05-2011 18:25:01 13.3 C 7.51 g/m*3 13.3 C 0 km/h
453 15-05-2011 18:37:02 16.4 C 8.23 g/m*3 16.4 C 0 km/h
454 15-05-2011 18:49:01 14.6 C 7.63 g/m*3 14.6 C 0 km/h
455 15-05-2011 19:01:02 12.2 C 6.8 g/m*3 12.2 C 0 km/h
456 15-05-2011 19:13:02 12.1 C 6.43 g/m*3 12.1 C 0 km/h
457 15-05-2011 19:25:01 10.6 C 6.93 g/m*3 10.6 C 0 km/h
458 15-05-2011 19:37:02 10.2 C 7.23 g/m*3 10.2 C 0 km/h
459 15-05-2011 19:49:01 10 C 7.33 g/m*3 10 C 0 km/h
460 15-05-2011 20:01:02 10.2 C 7.23 g/m*3 10.2 C 0 km/h
461 15-05-2011 20:13:02 10.2 C 7.23 g/m*3 10.2 C 0 km/h
462 15-05-2011 20:25:01 10 C 7.33 g/m*3 10 C 0 km/h
463 15-05-2011 20:37:02 9.8 C 7.42 g/m*3 9.8 C 0 km/h
464 15-05-2011 20:49:01 9.6 C 7.42 g/m*3 9.6 C 0 km/h
465 15-05-2011 21:01:02 9.4 C 7.33 g/m*3 9.4 C 0 km/h
466 15-05-2011 21:13:02 9.3 C 7.37 g/m*3 9.3 C 0 km/h
467 15-05-2011 21:25:02 9.8 C 7.14 g/m*3 9.8 C 0 km/h
468 15-05-2011 21:37:01 9.3 C 6.92 g/m*3 9.3 C 0 km/h
469 15-05-2011 21:49:02 9.2 C 7.05 g/m*3 9.2 C 0 km/h
470 15-05-2011 22:02:03 9.5 C 7.19 g/m*3 9.5 C 0 km/h
471 15-05-2011 22:14:03 10 C 7.05 g/m*3 10 C 0 km/h
472 15-05-2011 22:26:03 10.1 C 6.81 g/m*3 10.1 C 0 km/h
473 15-05-2011 22:38:03 10 C 6.95 g/m*3 10 C 0 km/h
474 15-05-2011 22:50:03 9.6 C 6.87 g/m*3 9.6 C 0 km/h
475 15-05-2011 23:02:03 9.3 C 7.1 g/m*3 9.3 C 0 km/h
Sensor: Nr:Datum:Temp:Abs-Feuchte:Windchill:Wind:
Aussen-T/F 476 15-05-2011 23:14:03 9.2 C 7.14 g/m*3 9.2 C 0 km/h
477 15-05-2011 23:26:03 9.2 C 7.14 g/m*3 9.2 C 0 km/h
478 15-05-2011 23:38:04 9.2 C 7.05 g/m*3 9.2 C 0 km/h
479 15-05-2011 23:50:04 8.7 C 7.01 g/m*3 8.7 C 0 km/h
480 16-05-2011 00:02:04 8.5 C 6.92 g/m*3 8.5 C 0 km/h
481 16-05-2011 00:14:04 8.6 C 6.87 g/m*3 8.6 C 0 km/h
482 16-05-2011 00:26:04 8.5 C 6.74 g/m*3 8.5 C 0 km/h
483 16-05-2011 00:38:04 8 C 6.61 g/m*3 8 C 0 km/h
484 16-05-2011 00:50:04 7.5 C 6.56 g/m*3 7.5 C 0 km/h
485 16-05-2011 01:02:04 7.4 C 6.6 g/m*3 7.4 C 0 km/h
486 16-05-2011 01:14:04 7.5 C 6.72 g/m*3 7.5 C 0 km/h
487 16-05-2011 01:26:04 7.4 C 6.76 g/m*3 7.4 C 0 km/h
488 16-05-2011 01:38:04 7.3 C 6.79 g/m*3 7.3 C 0 km/h
489 16-05-2011 01:50:04 7.6 C 6.93 g/m*3 7.6 C 0 km/h
490 16-05-2011 02:02:04 8 C 6.94 g/m*3 8 C 0 km/h
491 16-05-2011 02:14:04 7.9 C 6.82 g/m*3 7.9 C 0 km/h
492 16-05-2011 02:26:04 7.6 C 6.69 g/m*3 7.6 C 0 km/h
493 16-05-2011 02:38:04 8.1 C 6.74 g/m*3 8.1 C 0 km/h
494 16-05-2011 02:50:04 7.9 C 6.74 g/m*3 7.9 C 0 km/h
495 16-05-2011 03:02:04 8.1 C 6.74 g/m*3 8.1 C 0 km/h
496 16-05-2011 03:14:04 8.5 C 6.74 g/m*3 8.5 C 0 km/h
497 16-05-2011 03:26:04 8.3 C 6.57 g/m*3 8.3 C 0 km/h
498 16-05-2011 03:38:04 8.5 C 6.57 g/m*3 8.5 C 0 km/h
499 16-05-2011 03:50:05 8.6 C 6.62 g/m*3 8.6 C 0 km/h
500 16-05-2011 04:02:05 8.5 C 6.57 g/m*3 8.5 C 0 km/h
Sensor: Nr:Datum:Temp:Abs-Feuchte:Windchill:Wind:
Aussen-T/F 501 16-05-2011 04:14:05 8.6 C 6.53 g/m*3 8.6 C 0 km/h
502 16-05-2011 04:26:05 8.8 C 6.53 g/m*3 8.8 C 0 km/h
503 16-05-2011 04:38:05 9.3 C 6.2 g/m*3 9.3 C 0 km/h
504 16-05-2011 04:50:05 9.2 C 6.07 g/m*3 9.2 C 0 km/h
505 16-05-2011 05:02:05 9.2 C 6.07 g/m*3 9.2 C 0 km/h
506 16-05-2011 05:14:05 9.2 C 6.07 g/m*3 9.2 C 0 km/h
507 16-05-2011 05:26:05 9.1 C 6.12 g/m*3 9.1 C 0 km/h
508 16-05-2011 05:38:05 9.2 C 6.16 g/m*3 9.2 C 0 km/h
509 16-05-2011 05:50:05 9.1 C 6.21 g/m*3 9.1 C 0 km/h
510 16-05-2011 06:02:05 9.2 C 6.07 g/m*3 9.2 C 0 km/h
511 16-05-2011 06:14:05 9.4 C 5.97 g/m*3 9.4 C 0 km/h
512 16-05-2011 06:26:05 9.6 C 5.95 g/m*3 9.6 C 0 km/h
513 16-05-2011 06:38:05 9.6 C 5.95 g/m*3 9.6 C 0 km/h
514 16-05-2011 06:50:05 9.7 C 5.81 g/m*3 9.7 C 0 km/h
515 16-05-2011 07:02:05 9.8 C 5.75 g/m*3 9.8 C 0 km/h
516 16-05-2011 07:14:05 9.9 C 5.88 g/m*3 9.9 C 0 km/h
517 16-05-2011 07:26:03 10 C 5.83 g/m*3 10 C 0 km/h
518 16-05-2011 07:38:02 10 C 5.83 g/m*3 10 C 0 km/h
519 16-05-2011 07:50:02 10.1 C 5.77 g/m*3 10.1 C 0 km/h
520 16-05-2011 08:02:02 10.3 C 5.84 g/m*3 10.3 C 0 km/h
521 16-05-2011 08:14:02 10.7 C 5.89 g/m*3 10.7 C 0 km/h
522 16-05-2011 08:26:02 10.8 C 5.83 g/m*3 10.8 C 0 km/h
523 16-05-2011 08:38:03 11 C 5.71 g/m*3 11 C 0 km/h
524 16-05-2011 08:50:02 11.5 C 5.89 g/m*3 11.5 C 0 km/h
525 16-05-2011 09:02:02 11.8 C 5.79 g/m*3 11.8 C 0 km/h
Sensor: Nr:Datum:Temp:Abs-Feuchte:Windchill:Wind:
Aussen-T/F 526 16-05-2011 09:14:02 11.8 C 5.89 g/m*3 11.8 C 0 km/h
527 16-05-2011 09:26:02 12.4 C 5.68 g/m*3 12.4 C 0 km/h
528 16-05-2011 09:38:02 12.6 C 5.75 g/m*3 12.6 C 0 km/h
529 16-05-2011 09:50:02 13.3 C 5.78 g/m*3 13.3 C 0 km/h
530 16-05-2011 10:02:03 13.3 C 5.66 g/m*3 13.3 C 0 km/h
531 16-05-2011 10:14:03 13.4 C 5.81 g/m*3 13.4 C 0 km/h
532 16-05-2011 10:26:02 14 C 5.67 g/m*3 14 C 0 km/h
533 16-05-2011 10:38:02 15.2 C 5.58 g/m*3 15.2 C 0 km/h
534 16-05-2011 10:50:01 14.9 C 5.35 g/m*3 14.9 C 0 km/h
535 16-05-2011 11:02:02 15.6 C 5.59 g/m*3 15.6 C 0 km/h
536 16-05-2011 11:14:02 16.4 C 5.58 g/m*3 16.4 C 0 km/h
537 16-05-2011 11:26:01 16.4 C 5.58 g/m*3 16.4 C 0 km/h
538 16-05-2011 11:38:01 16.7 C 5.4 g/m*3 16.7 C 0 km/h
539 16-05-2011 11:50:01 16.7 C 5.4 g/m*3 16.7 C 0 km/h
540 16-05-2011 12:02:02 17.1 C 5.68 g/m*3 17.1 C 0 km/h
541 16-05-2011 12:14:03 16.2 C 5.24 g/m*3 16.2 C 0 km/h
542 16-05-2011 12:26:01 16.2 C 5.38 g/m*3 16.2 C 0 km/h
543 16-05-2011 12:38:02 16.2 C 5.52 g/m*3 16.2 C 0 km/h
544 16-05-2011 12:50:02 16.7 C 5.68 g/m*3 16.7 C 0 km/h
545 16-05-2011 13:02:02 15.9 C 5.82 g/m*3 15.9 C 0 km/h
546 16-05-2011 13:14:02 14.7 C 6.3 g/m*3 14.7 C 0 km/h
547 16-05-2011 13:26:02 15 C 6.54 g/m*3 15 C 0 km/h
548 16-05-2011 13:38:02 15.1 C 6.58 g/m*3 15.1 C 0 km/h
549 16-05-2011 13:50:02 15.5 C 6.74 g/m*3 15.5 C 0 km/h
550 16-05-2011 14:02:02 15.6 C 6.65 g/m*3 15.6 C 0 km/h
Sensor: Nr:Datum:Temp:Abs-Feuchte:Windchill:Wind:
Aussen-T/F 551 16-05-2011 14:14:02 15.2 C 6.36 g/m*3 15.2 C 0 km/h
552 16-05-2011 14:26:02 15.3 C 6.53 g/m*3 15.3 C 0 km/h
553 16-05-2011 14:38:02 14.8 C 6.59 g/m*3 14.8 C 0 km/h
554 16-05-2011 14:50:02 13.9 C 7.31 g/m*3 13.9 C 0 km/h
555 16-05-2011 15:02:02 14.1 C 7.4 g/m*3 14.1 C 0 km/h
556 16-05-2011 15:14:02 14.4 C 7.54 g/m*3 14.4 C 0 km/h
557 16-05-2011 15:26:02 14.8 C 7.35 g/m*3 14.8 C 0 km/h
558 16-05-2011 15:38:02 15 C 7.05 g/m*3 15 C 0 km/h
559 16-05-2011 15:50:02 14.7 C 6.8 g/m*3 14.7 C 0 km/h
560 16-05-2011 16:02:01 14.9 C 6.75 g/m*3 14.9 C 0 km/h
561 16-05-2011 16:14:01 15.2 C 6.62 g/m*3 15.2 C 0 km/h
562 16-05-2011 16:26:02 15.5 C 6.61 g/m*3 15.5 C 0 km/h
563 16-05-2011 16:38:02 15.5 C 6.61 g/m*3 15.5 C 0 km/h
564 16-05-2011 16:50:02 15.9 C 6.5 g/m*3 15.9 C 0 km/h
565 16-05-2011 17:02:02 16.9 C 6.47 g/m*3 16.9 C 0 km/h
566 16-05-2011 17:14:02 15.9 C 6.64 g/m*3 15.9 C 0 km/h
567 16-05-2011 17:26:02 15.9 C 6.77 g/m*3 15.9 C 0 km/h
568 16-05-2011 17:38:03 15.8 C 6.73 g/m*3 15.8 C 0 km/h
569 16-05-2011 17:50:02 15.5 C 7.01 g/m*3 15.5 C 0 km/h
570 16-05-2011 18:02:02 15.4 C 6.7 g/m*3 15.4 C 0 km/h
571 16-05-2011 18:14:02 15.4 C 6.7 g/m*3 15.4 C 0 km/h
572 16-05-2011 18:26:02 15.5 C 6.74 g/m*3 15.5 C 0 km/h
573 16-05-2011 18:38:02 15.5 C 6.74 g/m*3 15.5 C 0 km/h
574 16-05-2011 18:50:02 15.3 C 6.92 g/m*3 15.3 C 0 km/h
575 16-05-2011 19:02:02 15.4 C 6.83 g/m*3 15.4 C 0 km/h
Sensor: Nr:Datum:Temp:Abs-Feuchte:Windchill:Wind:
Aussen-T/F 576 16-05-2011 19:14:02 15.4 C 6.96 g/m*3 15.4 C 0 km/h
577 16-05-2011 19:26:02 15.3 C 6.92 g/m*3 15.3 C 0 km/h
578 16-05-2011 19:38:02 15.2 C 7.01 g/m*3 15.2 C 0 km/h
579 16-05-2011 19:50:02 15 C 6.92 g/m*3 15 C 0 km/h
580 16-05-2011 20:02:02 15 C 7.05 g/m*3 15 C 0 km/h
581 16-05-2011 20:14:02 14.8 C 7.22 g/m*3 14.8 C 0 km/h
582 16-05-2011 20:26:03 14.7 C 7.3 g/m*3 14.7 C 0 km/h
583 16-05-2011 20:38:02 14.5 C 7.34 g/m*3 14.5 C 0 km/h
584 16-05-2011 20:50:02 14 C 7.48 g/m*3 14 C 0 km/h
585 16-05-2011 21:02:03 14.1 C 7.65 g/m*3 14.1 C 0 km/h
586 16-05-2011 21:14:03 14.1 C 7.65 g/m*3 14.1 C 0 km/h
587 16-05-2011 21:26:02 13.9 C 7.67 g/m*3 13.9 C 0 km/h
588 16-05-2011 21:38:02 14 C 7.6 g/m*3 14 C 0 km/h
589 16-05-2011 21:50:01 13.6 C 7.65 g/m*3 13.6 C 0 km/h
590 16-05-2011 22:02:01 13.9 C 7.55 g/m*3 13.9 C 0 km/h
591 16-05-2011 22:14:02 13.5 C 7.6 g/m*3 13.5 C 0 km/h
592 16-05-2011 22:26:01 13.5 C 7.72 g/m*3 13.5 C 0 km/h
593 16-05-2011 22:39:02 13.6 C 7.77 g/m*3 13.6 C 0 km/h
594 16-05-2011 22:51:02 13.5 C 7.72 g/m*3 13.5 C 0 km/h
595 16-05-2011 23:03:02 13.3 C 7.74 g/m*3 13.3 C 0 km/h
596 16-05-2011 23:15:02 13.8 C 7.74 g/m*3 13.8 C 0 km/h
597 16-05-2011 23:27:02 13.4 C 7.67 g/m*3 13.4 C 0 km/h
598 16-05-2011 23:39:02 13.2 C 7.69 g/m*3 13.2 C 0 km/h
599 16-05-2011 23:51:02 13.1 C 7.65 g/m*3 13.1 C 0 km/h
600 17-05-2011 00:03:03 13.1 C 7.76 g/m*3 13.1 C 0 km/h
Sensor: Nr:Datum:Temp:Abs-Feuchte:Windchill:Wind:
Aussen-T/F 601 17-05-2011 00:15:03 13.2 C 7.81 g/m*3 13.2 C 0 km/h
602 17-05-2011 00:27:03 13.3 C 7.74 g/m*3 13.3 C 0 km/h
603 17-05-2011 00:39:03 12.4 C 7.76 g/m*3 12.4 C 0 km/h
604 17-05-2011 00:51:03 12.7 C 7.9 g/m*3 12.7 C 0 km/h
605 17-05-2011 01:03:03 13.4 C 7.79 g/m*3 13.4 C 0 km/h
606 17-05-2011 01:15:03 12.7 C 7.68 g/m*3 12.7 C 0 km/h
607 17-05-2011 01:27:03 12.8 C 7.84 g/m*3 12.8 C 0 km/h
608 17-05-2011 01:39:03 12.4 C 7.87 g/m*3 12.4 C 0 km/h
609 17-05-2011 01:51:03 12.4 C 7.98 g/m*3 12.4 C 0 km/h
610 17-05-2011 02:03:03 12.5 C 7.92 g/m*3 12.5 C 0 km/h
611 17-05-2011 02:15:03 12.6 C 8.08 g/m*3 12.6 C 0 km/h
612 17-05-2011 02:27:03 12.7 C 8.01 g/m*3 12.7 C 0 km/h
613 17-05-2011 02:39:03 12.8 C 8.06 g/m*3 12.8 C 0 km/h
614 17-05-2011 02:51:03 12.9 C 8.11 g/m*3 12.9 C 0 km/h
615 17-05-2011 03:03:03 13 C 7.83 g/m*3 13 C 0 km/h
616 17-05-2011 03:15:03 13 C 7.83 g/m*3 13 C 0 km/h
617 17-05-2011 03:27:03 12.8 C 7.95 g/m*3 12.8 C 0 km/h
618 17-05-2011 03:39:03 12.9 C 8 g/m*3 12.9 C 0 km/h
619 17-05-2011 03:51:03 12.8 C 7.95 g/m*3 12.8 C 0 km/h
620 17-05-2011 04:03:04 12.8 C 8.18 g/m*3 12.8 C 0 km/h
621 17-05-2011 04:15:04 12.8 C 8.06 g/m*3 12.8 C 0 km/h
622 17-05-2011 04:27:04 12.9 C 8 g/m*3 12.9 C 0 km/h
623 17-05-2011 04:39:04 12.5 C 8.03 g/m*3 12.5 C 0 km/h
624 17-05-2011 04:51:04 12.7 C 8.01 g/m*3 12.7 C 0 km/h
625 17-05-2011 05:03:04 12.7 C 8.01 g/m*3 12.7 C 0 km/h
Sensor: Nr:Datum:Temp:Abs-Feuchte:Windchill:Wind:
Aussen-T/F 626 17-05-2011 05:15:04 12.5 C 8.03 g/m*3 12.5 C 0 km/h
627 17-05-2011 05:27:04 12.6 C 7.97 g/m*3 12.6 C 0 km/h
628 17-05-2011 05:39:04 12.8 C 7.95 g/m*3 12.8 C 0 km/h
629 17-05-2011 05:51:04 12.8 C 7.84 g/m*3 12.8 C 0 km/h
630 17-05-2011 06:03:04 13 C 7.83 g/m*3 13 C 0 km/h
631 17-05-2011 06:15:04 13.1 C 7.87 g/m*3 13.1 C 0 km/h
632 17-05-2011 06:27:04 13.1 C 7.76 g/m*3 13.1 C 0 km/h
633 17-05-2011 06:39:04 13.2 C 7.69 g/m*3 13.2 C 0 km/h
634 17-05-2011 06:51:04 13.1 C 7.65 g/m*3 13.1 C 0 km/h
635 17-05-2011 07:03:03 13.4 C 7.67 g/m*3 13.4 C 0 km/h
636 17-05-2011 07:15:02 13.5 C 7.6 g/m*3 13.5 C 0 km/h
637 17-05-2011 07:27:02 13.6 C 7.65 g/m*3 13.6 C 0 km/h
638 17-05-2011 07:39:02 13.7 C 7.7 g/m*3 13.7 C 0 km/h
639 17-05-2011 07:51:02 13.7 C 7.58 g/m*3 13.7 C 0 km/h
640 17-05-2011 08:03:02 13.3 C 7.63 g/m*3 13.3 C 0 km/h
641 17-05-2011 08:15:02 13.3 C 7.86 g/m*3 13.3 C 0 km/h
642 17-05-2011 08:27:02 12.6 C 7.97 g/m*3 12.6 C 0 km/h
643 17-05-2011 08:39:02 13 C 8.17 g/m*3 13 C 0 km/h
644 17-05-2011 08:51:02 13.3 C 8.09 g/m*3 13.3 C 0 km/h
645 17-05-2011 09:03:02 13.5 C 8.07 g/m*3 13.5 C 0 km/h
646 17-05-2011 09:15:01 14 C 7.84 g/m*3 14 C 0 km/h
647 17-05-2011 09:27:01 14.4 C 7.79 g/m*3 14.4 C 0 km/h
648 17-05-2011 09:39:02 14.3 C 7.62 g/m*3 14.3 C 0 km/h
649 17-05-2011 09:51:02 14.5 C 7.84 g/m*3 14.5 C 0 km/h
650 17-05-2011 10:03:01 14.7 C 7.81 g/m*3 14.7 C 0 km/h
Sensor: Nr:Datum:Temp:Abs-Feuchte:Windchill:Wind:
Aussen-T/F 651 17-05-2011 10:15:02 15.2 C 7.79 g/m*3 15.2 C 0 km/h
652 17-05-2011 10:27:02 15.3 C 7.7 g/m*3 15.3 C 0 km/h
653 17-05-2011 10:39:02 15 C 7.82 g/m*3 15 C 0 km/h
654 17-05-2011 10:51:02 15.2 C 7.79 g/m*3 15.2 C 0 km/h
655 17-05-2011 11:03:02 15.3 C 7.7 g/m*3 15.3 C 0 km/h
656 17-05-2011 11:15:02 15.7 C 8.03 g/m*3 15.7 C 0 km/h
657 17-05-2011 11:27:02 16.2 C 7.58 g/m*3 16.2 C 0 km/h
658 17-05-2011 11:39:01 17.1 C 7.13 g/m*3 17.1 C 0 km/h
659 17-05-2011 11:51:02 16.8 C 7.15 g/m*3 16.8 C 0 km/h
660 17-05-2011 12:03:01 17.4 C 7.26 g/m*3 17.4 C 0 km/h
661 17-05-2011 12:15:02 18.2 C 7.15 g/m*3 18.2 C 0 km/h
662 17-05-2011 12:27:02 18 C 7.07 g/m*3 18 C 0 km/h
663 17-05-2011 12:39:01 18.6 C 7.16 g/m*3 18.6 C 0 km/h
664 17-05-2011 12:51:02 18.7 C 6.72 g/m*3 18.7 C 0 km/h
665 17-05-2011 13:03:02 19.3 C 6.8 g/m*3 19.3 C 0 km/h
666 17-05-2011 13:15:02 19.4 C 6.67 g/m*3 19.4 C 0 km/h
667 17-05-2011 13:27:02 20.6 C 6.98 g/m*3 20.6 C 0 km/h
668 17-05-2011 13:39:02 22.1 C 6.64 g/m*3 22.1 C 0 km/h
669 17-05-2011 13:51:02 20.6 C 6.98 g/m*3 20.6 C 0 km/h
670 17-05-2011 14:03:01 23.7 C 6.84 g/m*3 23.7 C 0 km/h
671 17-05-2011 14:15:01 22 C 5.82 g/m*3 22 C 0 km/h
672 17-05-2011 14:27:01 22.4 C 5.96 g/m*3 22.4 C 0 km/h
673 17-05-2011 14:39:01 24.1 C 5.69 g/m*3 24.1 C 0 km/h
674 17-05-2011 14:51:02 23.6 C 6.38 g/m*3 23.6 C 0 km/h
675 17-05-2011 15:03:02 22.1 C 5.86 g/m*3 22.1 C 0 km/h
Sensor: Nr:Datum:Temp:Abs-Feuchte:Windchill:Wind:
Aussen-T/F 676 17-05-2011 15:15:02 22.2 C 6.28 g/m*3 22.2 C 0 km/h
677 17-05-2011 15:27:02 23.5 C 6.13 g/m*3 23.5 C 0 km/h
678 17-05-2011 15:39:02 25.2 C 6.52 g/m*3 25.2 C 0 km/h
679 17-05-2011 15:51:02 27.4 C 5.53 g/m*3 27.4 C 0 km/h
680 17-05-2011 16:03:02 26.5 C 5.01 g/m*3 26.5 C 0 km/h
681 17-05-2011 16:15:02 27.4 C 5.26 g/m*3 27.4 C 0 km/h
682 17-05-2011 16:27:02 25.9 C 4.84 g/m*3 25.9 C 0 km/h
683 17-05-2011 16:39:02 27.2 C 5.2 g/m*3 27.2 C 0 km/h
684 17-05-2011 16:51:02 27 C 5.15 g/m*3 27 C 0 km/h
685 17-05-2011 17:03:02 28.2 C 5.5 g/m*3 28.2 C 0 km/h
686 17-05-2011 17:15:01 27.5 C 5.29 g/m*3 27.5 C 0 km/h
687 17-05-2011 17:27:01 26.5 C 5.01 g/m*3 26.5 C 0 km/h
688 17-05-2011 17:39:02 27.9 C 5.41 g/m*3 27.9 C 0 km/h
689 17-05-2011 17:51:02 26.7 C 5.06 g/m*3 26.7 C 0 km/h
690 17-05-2011 18:03:02 28.1 C 5.47 g/m*3 28.1 C 0 km/h
691 17-05-2011 18:15:02 23.1 C 4.55 g/m*3 23.1 C 0 km/h
692 17-05-2011 18:27:02 24.7 C 4.98 g/m*3 24.7 C 0 km/h
693 17-05-2011 18:39:02 24.9 C 4.58 g/m*3 24.9 C 0 km/h
694 17-05-2011 18:51:03 23.4 C 4.21 g/m*3 23.4 C 0 km/h
695 17-05-2011 19:03:02 24.4 C 4.45 g/m*3 24.4 C 0 km/h
696 17-05-2011 19:15:03 22.5 C 4.39 g/m*3 22.5 C 0 km/h
697 17-05-2011 19:27:03 22.8 C 5.28 g/m*3 22.8 C 0 km/h
698 17-05-2011 19:39:02 22.1 C 5.08 g/m*3 22.1 C 0 km/h
699 17-05-2011 19:51:02 21.2 C 5.19 g/m*3 21.2 C 0 km/h
700 17-05-2011 20:03:02 20.9 C 5.65 g/m*3 20.9 C 0 km/h
Sensor: Nr:Datum:Temp:Abs-Feuchte:Windchill:Wind:
Aussen-T/F 701 17-05-2011 20:15:02 20.4 C 5.84 g/m*3 20.4 C 0 km/h
702 17-05-2011 20:27:02 19.9 C 5.84 g/m*3 19.9 C 0 km/h
703 17-05-2011 20:39:02 18.9 C 6.16 g/m*3 18.9 C 0 km/h
704 17-05-2011 20:51:02 17.7 C 6.64 g/m*3 17.7 C 0 km/h
705 17-05-2011 21:03:02 16 C 6.68 g/m*3 16 C 0 km/h
706 17-05-2011 21:15:01 15.7 C 6.42 g/m*3 15.7 C 0 km/h
707 17-05-2011 21:27:01 15.2 C 6.49 g/m*3 15.2 C 0 km/h
708 17-05-2011 21:39:02 14.5 C 6.47 g/m*3 14.5 C 0 km/h
709 17-05-2011 21:51:02 14 C 6.51 g/m*3 14 C 0 km/h
710 17-05-2011 22:04:03 13.8 C 6.55 g/m*3 13.8 C 0 km/h
711 17-05-2011 22:16:03 13.6 C 6.47 g/m*3 13.6 C 0 km/h
712 17-05-2011 22:28:03 13.6 C 6.47 g/m*3 13.6 C 0 km/h
713 17-05-2011 22:40:03 13.1 C 6.5 g/m*3 13.1 C 0 km/h
714 17-05-2011 22:52:03 12.7 C 6.57 g/m*3 12.7 C 0 km/h
715 17-05-2011 23:04:03 12.2 C 6.69 g/m*3 12.2 C 0 km/h
716 17-05-2011 23:16:03 11.7 C 6.8 g/m*3 11.7 C 0 km/h
717 17-05-2011 23:28:03 11.9 C 7.1 g/m*3 11.9 C 0 km/h
718 17-05-2011 23:40:03 11.5 C 6.71 g/m*3 11.5 C 0 km/h
719 17-05-2011 23:52:03 10.9 C 6.66 g/m*3 10.9 C 0 km/h
720 18-05-2011 00:04:03 10.4 C 6.55 g/m*3 10.4 C 0 km/h
721 18-05-2011 00:16:03 10.2 C 6.66 g/m*3 10.2 C 0 km/h
722 18-05-2011 00:28:03 10.3 C 6.9 g/m*3 10.3 C 0 km/h
723 18-05-2011 00:40:03 10.4 C 7.04 g/m*3 10.4 C 0 km/h
724 18-05-2011 00:52:03 9.9 C 6.91 g/m*3 9.9 C 0 km/h
725 18-05-2011 01:04:03 9.6 C 6.78 g/m*3 9.6 C 0 km/h
Sensor: Nr:Datum:Temp:Abs-Feuchte:Windchill:Wind:
Aussen-T/F 726 18-05-2011 01:16:03 9.6 C 6.87 g/m*3 9.6 C 0 km/h
727 18-05-2011 01:28:04 9.5 C 6.92 g/m*3 9.5 C 0 km/h
728 18-05-2011 01:40:04 9.5 C 7.01 g/m*3 9.5 C 0 km/h
729 18-05-2011 01:52:04 9.2 C 6.88 g/m*3 9.2 C 0 km/h
730 18-05-2011 02:04:04 8.8 C 6.88 g/m*3 8.8 C 0 km/h
731 18-05-2011 02:16:04 8.6 C 6.87 g/m*3 8.6 C 0 km/h
732 18-05-2011 02:28:04 8.6 C 6.96 g/m*3 8.6 C 0 km/h
733 18-05-2011 02:40:04 8.4 C 6.96 g/m*3 8.4 C 0 km/h
734 18-05-2011 02:52:04 8.3 C 7 g/m*3 8.3 C 0 km/h
735 18-05-2011 03:04:04 8 C 6.86 g/m*3 8 C 0 km/h
736 18-05-2011 03:16:04 8 C 6.94 g/m*3 8 C 0 km/h
737 18-05-2011 03:28:04 7.8 C 6.94 g/m*3 7.8 C 0 km/h
738 18-05-2011 03:40:04 7.6 C 6.93 g/m*3 7.6 C 0 km/h
739 18-05-2011 03:52:04 7.4 C 6.84 g/m*3 7.4 C 0 km/h
740 18-05-2011 04:04:04 7.3 C 6.79 g/m*3 7.3 C 0 km/h
741 18-05-2011 04:16:04 7.1 C 6.71 g/m*3 7.1 C 0 km/h
742 18-05-2011 04:28:04 7 C 6.74 g/m*3 7 C 0 km/h
743 18-05-2011 04:40:04 7 C 6.74 g/m*3 7 C 0 km/h
744 18-05-2011 04:52:04 6.9 C 6.77 g/m*3 6.9 C 0 km/h
745 18-05-2011 05:04:04 6.7 C 6.69 g/m*3 6.7 C 0 km/h
746 18-05-2011 05:16:04 6.6 C 6.64 g/m*3 6.6 C 0 km/h
747 18-05-2011 05:28:04 6.8 C 6.81 g/m*3 6.8 C 0 km/h
748 18-05-2011 05:40:05 6.5 C 6.67 g/m*3 6.5 C 0 km/h
749 18-05-2011 05:52:05 6.5 C 6.67 g/m*3 6.5 C 0 km/h
750 18-05-2011 06:04:05 6.4 C 6.63 g/m*3 6.4 C 0 km/h
Sensor: Nr:Datum:Temp:Abs-Feuchte:Windchill:Wind:
Aussen-T/F 751 18-05-2011 06:16:05 6.5 C 6.67 g/m*3 6.5 C 0 km/h
752 18-05-2011 06:28:05 6.7 C 6.76 g/m*3 6.7 C 0 km/h
753 18-05-2011 06:40:03 7 C 6.9 g/m*3 7 C 0 km/h
754 18-05-2011 06:52:02 7.1 C 6.94 g/m*3 7.1 C 0 km/h
755 18-05-2011 07:04:01 7.4 C 7.08 g/m*3 7.4 C 0 km/h
756 18-05-2011 07:16:02 7.5 C 7.12 g/m*3 7.5 C 0 km/h
757 18-05-2011 07:28:02 8 C 7.28 g/m*3 8 C 0 km/h
758 18-05-2011 07:40:01 8.3 C 7.33 g/m*3 8.3 C 0 km/h
759 18-05-2011 07:52:02 8.4 C 7.38 g/m*3 8.4 C 0 km/h
760 18-05-2011 08:04:02 8.8 C 7.49 g/m*3 8.8 C 0 km/h
761 18-05-2011 08:16:01 9 C 7.49 g/m*3 9 C 0 km/h
762 18-05-2011 08:28:01 9.6 C 7.69 g/m*3 9.6 C 0 km/h
763 18-05-2011 08:40:02 10.1 C 7.85 g/m*3 10.1 C 0 km/h
764 18-05-2011 08:52:02 10.8 C 8.01 g/m*3 10.8 C 0 km/h
765 18-05-2011 09:04:01 11.3 C 8.16 g/m*3 11.3 C 0 km/h
766 18-05-2011 09:16:02 11.8 C 8.31 g/m*3 11.8 C 0 km/h
767 18-05-2011 09:28:02 12.4 C 8.19 g/m*3 12.4 C 0 km/h
768 18-05-2011 09:40:01 14.1 C 7.16 g/m*3 14.1 C 0 km/h
769 18-05-2011 09:52:02 15 C 7.05 g/m*3 15 C 0 km/h
770 18-05-2011 10:04:02 15.8 C 7 g/m*3 15.8 C 0 km/h
771 18-05-2011 10:16:01 16.7 C 6.96 g/m*3 16.7 C 0 km/h
772 18-05-2011 10:28:01 17.2 C 6.59 g/m*3 17.2 C 0 km/h
773 18-05-2011 10:40:02 17.8 C 6.22 g/m*3 17.8 C 0 km/h
774 18-05-2011 10:52:02 18.3 C 5.94 g/m*3 18.3 C 0 km/h
775 18-05-2011 11:04:02 18.7 C 5.92 g/m*3 18.7 C 0 km/h
Sensor: Nr:Datum:Temp:Abs-Feuchte:Windchill:Wind:
Aussen-T/F 776 18-05-2011 11:16:02 19 C 6.19 g/m*3 19 C 0 km/h
777 18-05-2011 11:28:02 19.2 C 6.1 g/m*3 19.2 C 0 km/h
778 18-05-2011 11:40:01 19.2 C 6.27 g/m*3 19.2 C 0 km/h
779 18-05-2011 11:52:02 19.6 C 6.25 g/m*3 19.6 C 0 km/h
780 18-05-2011 12:04:02 19.8 C 6.32 g/m*3 19.8 C 0 km/h
781 18-05-2011 12:16:02 20.1 C 6.26 g/m*3 20.1 C 0 km/h
782 18-05-2011 12:28:02 21.1 C 6.45 g/m*3 21.1 C 0 km/h
783 18-05-2011 12:40:01 20.7 C 6.48 g/m*3 20.7 C 0 km/h
784 18-05-2011 12:52:01 21.4 C 6.37 g/m*3 21.4 C 0 km/h
785 18-05-2011 13:04:02 22 C 6.4 g/m*3 22 C 0 km/h
786 18-05-2011 13:16:01 22.4 C 6.36 g/m*3 22.4 C 0 km/h
787 18-05-2011 13:28:01 22.6 C 6.23 g/m*3 22.6 C 0 km/h
788 18-05-2011 13:40:02 26.6 C 6.29 g/m*3 26.6 C 0 km/h
789 18-05-2011 13:52:03 27.8 C 5.65 g/m*3 27.8 C 0 km/h
790 18-05-2011 14:04:03 26.9 C 5.37 g/m*3 26.9 C 0 km/h
791 18-05-2011 14:16:02 28.4 C 5.84 g/m*3 28.4 C 0 km/h
792 18-05-2011 14:28:02 27.8 C 5.92 g/m*3 27.8 C 0 km/h
793 18-05-2011 14:40:03 26.9 C 5.12 g/m*3 26.9 C 0 km/h
794 18-05-2011 14:52:02 29.9 C 6.03 g/m*3 29.9 C 0 km/h
795 18-05-2011 15:04:02 30.4 C 6.2 g/m*3 30.4 C 0 km/h
796 18-05-2011 15:16:02 29.8 C 6 g/m*3 29.8 C 0 km/h
797 18-05-2011 15:28:02 27.7 C 5.35 g/m*3 27.7 C 0 km/h
798 18-05-2011 15:40:02 29.1 C 5.78 g/m*3 29.1 C 0 km/h
799 18-05-2011 15:52:02 27.9 C 5.41 g/m*3 27.9 C 0 km/h
800 18-05-2011 16:04:02 29.2 C 5.81 g/m*3 29.2 C 0 km/h
Sensor: Nr:Datum:Temp:Abs-Feuchte:Windchill:Wind:
Aussen-T/F 801 18-05-2011 16:16:02 28.4 C 5.56 g/m*3 28.4 C 0 km/h
802 18-05-2011 16:28:02 29.8 C 6 g/m*3 29.8 C 0 km/h
803 18-05-2011 16:40:02 29.2 C 5.81 g/m*3 29.2 C 0 km/h
804 18-05-2011 16:52:02 27.8 C 5.38 g/m*3 27.8 C 0 km/h
805 18-05-2011 17:04:02 28.2 C 5.5 g/m*3 28.2 C 0 km/h
806 18-05-2011 17:16:02 26.2 C 4.92 g/m*3 26.2 C 0 km/h
807 18-05-2011 17:28:02 29.1 C 5.78 g/m*3 29.1 C 0 km/h
808 18-05-2011 17:40:02 27.9 C 5.41 g/m*3 27.9 C 0 km/h
809 18-05-2011 17:52:01 27.1 C 5.18 g/m*3 27.1 C 0 km/h
810 18-05-2011 18:04:02 27.7 C 5.35 g/m*3 27.7 C 0 km/h
811 18-05-2011 18:16:02 29.7 C 5.97 g/m*3 29.7 C 0 km/h
812 18-05-2011 18:28:02 27.7 C 5.35 g/m*3 27.7 C 0 km/h
813 18-05-2011 18:40:01 24.9 C 6.87 g/m*3 24.9 C 0 km/h
814 18-05-2011 18:52:01 24.1 C 6.78 g/m*3 24.1 C 0 km/h
815 18-05-2011 19:04:02 22.3 C 6.91 g/m*3 22.3 C 0 km/h
816 18-05-2011 19:16:01 24.7 C 6.79 g/m*3 24.7 C 0 km/h
817 18-05-2011 19:28:01 25.8 C 6.98 g/m*3 25.8 C 0 km/h
818 18-05-2011 19:40:02 23.3 C 7.32 g/m*3 23.3 C 0 km/h
819 18-05-2011 19:52:01 22.2 C 7.66 g/m*3 22.2 C 0 km/h
820 18-05-2011 20:04:02 21.1 C 7.92 g/m*3 21.1 C 0 km/h
821 18-05-2011 20:16:02 20.7 C 8.1 g/m*3 20.7 C 0 km/h
822 18-05-2011 20:28:02 19.8 C 8.03 g/m*3 19.8 C 0 km/h
823 18-05-2011 20:40:01 19.2 C 7.91 g/m*3 19.2 C 0 km/h
824 18-05-2011 20:52:01 18.5 C 7.75 g/m*3 18.5 C 0 km/h
825 18-05-2011 21:04:02 18.2 C 7.15 g/m*3 18.2 C 0 km/h
Sensor: Nr:Datum:Temp:Abs-Feuchte:Windchill:Wind:
Aussen-T/F 826 18-05-2011 21:16:02 17.9 C 7.33 g/m*3 17.9 C 0 km/h
827 18-05-2011 21:28:03 17.4 C 7.41 g/m*3 17.4 C 0 km/h
828 18-05-2011 21:40:02 16.9 C 7.34 g/m*3 16.9 C 0 km/h
829 18-05-2011 21:52:02 17 C 7.38 g/m*3 17 C 0 km/h
830 18-05-2011 22:04:02 16.9 C 7.91 g/m*3 16.9 C 0 km/h
831 18-05-2011 22:16:02 16.1 C 7.68 g/m*3 16.1 C 0 km/h
832 18-05-2011 22:28:02 15.3 C 7.7 g/m*3 15.3 C 0 km/h
833 18-05-2011 22:40:02 14.7 C 7.81 g/m*3 14.7 C 0 km/h
834 18-05-2011 22:53:03 14.5 C 7.59 g/m*3 14.5 C 0 km/h
835 18-05-2011 23:05:03 14.1 C 7.65 g/m*3 14.1 C 0 km/h
836 18-05-2011 23:17:03 13.9 C 7.79 g/m*3 13.9 C 0 km/h
837 18-05-2011 23:29:03 13.5 C 7.6 g/m*3 13.5 C 0 km/h
838 18-05-2011 23:41:03 13.2 C 7.58 g/m*3 13.2 C 0 km/h
839 18-05-2011 23:53:03 13 C 7.6 g/m*3 13 C 0 km/h

Legende:
   Min
   Max


Maximal/Minimal-Werte vom 12.05.2011 - 18.05.2011

Sensor Min Max Avg
Temp
(Aussen-T/F)
4.3 °C
15-05-2011  05:37:04
30.4 °C
18-05-2011  15:04:02
14.09 °C
Abs-Feuchte
(Aussen-T/F)
3.25 g/m*3
14-05-2011  19:48:01
8.37 g/m*3
12-05-2011  02:09:01
6.27 g/m*3
Windchill
(Aussen-T/F)
4.3 C
15-05-2011  05:37:04
30.4 C
18-05-2011  15:04:02
14.07 C

Die Daten stammen von einer Davis Vantage Pro 2 Wetter-Station und werden unter Linux mit der Software wview2wettercgi und aufbereitet. Alle Angaben erfolgen ohne Gewähr für ihre Vollständigkeit oder Richtigkeit.
Kontakt: Rainer Krienke krienke@uni-koblenz.de . Meine Webseiten an der Uni Koblenz oder privat.
Version: $Revision: 0.78 $